CW6020 Teulada ES current weather conditions

sailwx.info

Wind from 120

Air temperature 13.9° C
Dewpoint 11.6° C

Last reported at 2014-Oct-23 01:51 UTC.
Time now 2014-Oct-23 02:19 UTC

Location: N 38°44' E 000°06'.
View on Google Maps.

See reports from other nearby stations

  
Tides and Currents Weather Stations Pressure Air Temp Water Temp Dewpoint Dewpoint Depression Visibility Wind Speed Wind Dir Waves Ship Positions
date/time (UTC)wind fromknots sea level pressurealtimeterstation pressurevisibilityair tempwater tempwave heightnotes
2014-Oct-23 01:51 120 13.9
2014-Oct-23 01:31 090 14.4
2014-Oct-23 01:21 150 13.9
2014-Oct-23 01:01 13.3
2014-Oct-23 00:51 135 13.3
2014-Oct-23 00:31 105 13.3
2014-Oct-23 00:11 13.3
2014-Oct-22 23:51 150 13.3
2014-Oct-22 23:21 135 13.3
2014-Oct-22 23:11 135 13.3
2014-Oct-22 22:51 135 13.3
2014-Oct-22 22:41 105 13.3
2014-Oct-22 22:31 150 13.3
2014-Oct-22 22:21 150 13.9
2014-Oct-22 22:11 090 13.9
2014-Oct-22 22:01 120 13.9
2014-Oct-22 21:51 120 13.9
2014-Oct-22 21:31 105 14.4
2014-Oct-22 21:01 135 1 gusting 1 15.0
2014-Oct-22 20:51 210 15.0
2014-Oct-22 20:41 180 15.0
2014-Oct-22 20:31 165 15.0
2014-Oct-22 20:21 150 15.0
2014-Oct-22 20:11 165 15.6
2014-Oct-22 20:01 135 15.6
2014-Oct-22 19:41 195 16.1
2014-Oct-22 19:31 135 16.1
2014-Oct-22 19:21 135 16.1
2014-Oct-22 19:01 165 16.7
2014-Oct-22 18:31 195 17.2
2014-Oct-22 18:01 150 18.3
2014-Oct-22 17:21 075 20.0
2014-Oct-22 17:11 090 0 gusting 1 20.6
2014-Oct-22 16:51 120 1 gusting 3 21.1
2014-Oct-22 16:41 075 2 gusting 3 21.7
2014-Oct-22 16:31 135 1 gusting 2 21.7
2014-Oct-22 16:11 225 1 gusting 2 22.8
2014-Oct-22 15:51 225 2 gusting 3 23.3
2014-Oct-22 15:41 135 23.3
2014-Oct-22 15:31 030 1 gusting 5 23.9
2014-Oct-22 15:11 082 3 gusting 4 24.4
2014-Oct-22 15:01 225 1 gusting 2 24.4
2014-Oct-22 14:31 030 1 gusting 4 25.0
2014-Oct-22 14:21 075 3 gusting 6 25.0
2014-Oct-22 14:11 030 3 gusting 6 25.6
2014-Oct-22 14:01 022 1 gusting 3 25.6
2014-Oct-22 13:51 022 1 gusting 3 25.0
2014-Oct-22 13:41 052 1 gusting 3 25.0
2014-Oct-22 13:11 195 1 gusting 1 26.1
2014-Oct-22 12:51 127 3 gusting 4 27.2
2014-Oct-22 12:31 330 1 gusting 6 28.3
2014-Oct-22 12:21 255 2 gusting 3 28.3
2014-Oct-22 12:11 180 1 gusting 3 27.2
2014-Oct-22 11:51 135 2 gusting 4 26.7
2014-Oct-22 11:41 150 3 gusting 6 26.7
2014-Oct-22 11:21 135 2 gusting 4 27.2
2014-Oct-22 11:11 120 1 gusting 1 27.2
2014-Oct-22 11:01 300 1 gusting 3 27.2
2014-Oct-22 10:51 030 2 gusting 4 27.2
2014-Oct-22 10:41 330 1 gusting 5 27.8
2014-Oct-22 10:30 150 1 gusting 1 27.8
2014-Oct-22 10:21 120 0 gusting 1 27.2
2014-Oct-22 10:11 090 1 gusting 4 27.2
2014-Oct-22 10:01 210 3 gusting 6 27.2
2014-Oct-22 09:41 135 3 gusting 4 25.6
2014-Oct-22 09:21 165 2 gusting 3 25.6
2014-Oct-22 09:10 25.6
2014-Oct-22 09:01 345 3 gusting 6 25.6
2014-Oct-22 08:40 180 4 gusting 6 25.0
2014-Oct-22 08:31 195 1 gusting 2 25.0
2014-Oct-22 08:21 195 2 gusting 4 24.4
2014-Oct-22 08:11 150 1 gusting 2 24.4
2014-Oct-22 08:00 135 2 gusting 5 23.9
2014-Oct-22 07:50 090 2 gusting 4 23.3
2014-Oct-22 07:40 180 1 gusting 5 22.8
2014-Oct-22 07:30 180 1 gusting 3 22.8
2014-Oct-22 07:21 225 7 gusting 12 22.8
2014-Oct-22 07:11 345 3 gusting 6 22.2
2014-Oct-22 06:51 330 0 gusting 5 22.2
2014-Oct-22 06:41 322 3 gusting 6 22.2
2014-Oct-22 06:31 300 3 gusting 7 22.2
2014-Oct-22 06:21 270 5 gusting 6 22.8
2014-Oct-22 06:11 22.8
2014-Oct-22 05:51 105 1 gusting 2 23.9
2014-Oct-22 05:01 300 2 gusting 5 24.4
2014-Oct-22 04:50 202 6 gusting 12 23.9
2014-Oct-22 03:30 255 1 gusting 1 22.2
2014-Oct-22 03:20 345 3 gusting 7 22.2
2014-Oct-22 03:10 240 3 gusting 6 22.2
2014-Oct-22 03:00 120 2 gusting 4 22.8
2014-Oct-22 02:41 300 1 gusting 3 23.3
2014-Oct-22 02:30 330 1 gusting 2 23.3
2014-Oct-22 02:21 23.9
2014-Oct-22 01:40 120 3 gusting 5 26.1
2014-Oct-22 01:31 135 1 gusting 2 26.7
2014-Oct-22 01:21 270 3 gusting 4 27.8
2014-Oct-22 01:10 27.2
2014-Oct-22 01:00 090 2 gusting 4 27.8
2014-Oct-22 00:51 067 1 gusting 1 27.2
2014-Oct-22 00:30 240 1 gusting 3 27.2
2014-Oct-22 00:20 165 1 gusting 2 27.2
2014-Oct-22 00:11 27.2
2014-Oct-22 00:01 300 0 gusting 2 27.2
2014-Oct-21 23:51 330 1 gusting 3 27.2
2014-Oct-21 23:31 345 0 gusting 1 27.2
2014-Oct-21 23:20 26.7
2014-Oct-21 22:50 285 1 gusting 2 26.1
2014-Oct-21 22:40 345 1 gusting 2 26.1
2014-Oct-21 22:20 292 0 gusting 1 25.0
2014-Oct-21 22:00 060 23.3
2014-Oct-21 21:30 090 23.3
2014-Oct-21 21:10 120 23.9
2014-Oct-21 21:00 270 24.4
2014-Oct-21 20:50 075 25.0
2014-Oct-21 20:40 105 25.6
2014-Oct-21 20:20 27.2
2014-Oct-21 20:10 26.1
2014-Oct-21 20:00 345 1 gusting 1 25.6
2014-Oct-21 19:50 165 0 gusting 1 23.3
2014-Oct-21 19:40 307 22.8
2014-Oct-21 19:30 210 22.2
2014-Oct-21 19:20 300 22.2
2014-Oct-21 19:11 180 0 gusting 1 22.2
2014-Oct-21 18:50 150 22.8
2014-Oct-21 18:40 120 23.3
2014-Oct-21 18:30 105 23.3
2014-Oct-21 18:20 150 23.9
2014-Oct-21 18:10 180 24.4
2014-Oct-21 17:31 180 26.7
2014-Oct-21 17:20 180 0 gusting 1 27.2
2014-Oct-21 17:00 270 0 gusting 1 28.9
2014-Oct-21 16:40 180 30.0
2014-Oct-21 16:30 180 1 gusting 1 30.6
2014-Oct-21 16:20 225 0 gusting 1 31.1
2014-Oct-21 15:50 180 1 gusting 2 32.8
2014-Oct-21 15:41 150 1 gusting 1 33.3
2014-Oct-21 15:30 165 1 gusting 1 33.3
2014-Oct-21 15:10 082 1 gusting 2 34.4
2014-Oct-21 14:50 135 0 gusting 1 36.7
2014-Oct-21 14:40 225 3 gusting 4 36.7
2014-Oct-21 14:30 255 36.7
2014-Oct-21 14:10 210 1 gusting 2 36.1
2014-Oct-21 14:00 315 36.1
2014-Oct-21 13:40 022 36.7
2014-Oct-21 13:20 150 1 gusting 2 36.1
2014-Oct-21 12:20 240 0 gusting 1 36.7
2014-Oct-21 12:10 240 0 gusting 1 35.6
2014-Oct-21 12:00 135 0 gusting 1 35.0
2014-Oct-21 11:50 270 1 gusting 1 35.0
2014-Oct-21 11:40 300 3 gusting 4 35.0
2014-Oct-21 11:30 34.4
2014-Oct-21 11:20 015 3 gusting 5 34.4
2014-Oct-21 11:10 135 0 gusting 1 34.4
2014-Oct-21 10:51 172 1 gusting 3 34.4
2014-Oct-21 10:40 240 0 gusting 1 33.3
2014-Oct-21 10:30 240 0 gusting 1 32.8
2014-Oct-21 10:10 315 1 gusting 3 31.1
2014-Oct-21 10:00 060 3 gusting 6 31.1
2014-Oct-21 09:50 345 3 gusting 4 30.6
2014-Oct-21 09:40 345 1 gusting 2 30.6
2014-Oct-21 09:30 345 2 gusting 6 30.6
2014-Oct-21 09:20 30.0
2014-Oct-21 08:40 345 3 gusting 6 28.9
2014-Oct-21 08:31 330 6 gusting 14 28.9
2014-Oct-21 08:21 28.9
2014-Oct-21 08:10 345 3 gusting 4 28.3
2014-Oct-21 08:00 345 2 gusting 4 27.8
2014-Oct-21 07:40 25.6
2014-Oct-21 07:30 345 2 gusting 4 23.9
2014-Oct-21 07:20 352 2 gusting 6 20.6
2014-Oct-21 07:11 037 1 gusting 3 16.7
2014-Oct-21 07:00 075 15.6
2014-Oct-21 06:50 090 14.4
2014-Oct-21 06:40 150 13.9
2014-Oct-21 06:20 030 13.9
2014-Oct-21 06:10 075 13.3
2014-Oct-21 06:00 120 13.3
2014-Oct-21 05:50 135 13.3
2014-Oct-21 05:40 105 13.3
2014-Oct-21 05:30 127 13.3
2014-Oct-21 05:20 172 13.3
2014-Oct-21 05:10 180 13.3
2014-Oct-21 04:40 150 13.9
2014-Oct-21 04:31 135 13.9
2014-Oct-21 04:20 135 13.9
2014-Oct-21 04:10 135 13.9
2014-Oct-21 04:00 135 13.9
2014-Oct-21 03:40 150 13.9
2014-Oct-21 03:30 180 13.9
2014-Oct-21 03:00 060 14.4
2014-Oct-21 02:40 135 0 gusting 1 15.0
2014-Oct-21 02:10 180 15.0
2014-Oct-21 02:00 210 15.0